This is the latest recevied weather packets stored in our database for station/object DM3DP. If no packets are shown the sender has not sent any weather packets the latest 10 day(s).
| Time | Temp. | Humidity | Pressure | Rain* | Wind** | Luminosity | Snow |
|---|---|---|---|---|---|---|---|
| 1777905235 | 18.33° C | 84% | 1011.4 hPa | 1.02 mm | - | 26 W/m² | - |
| 1777904905 | 18.33° C | 83% | 1011.4 hPa | 0.76 mm | - | 19 W/m² | - |
| 1777904574 | 18.89° C | 83% | 1011.3 hPa | 0.76 mm | - | 14 W/m² | - |
| 1777904245 | 18.89° C | 82% | 1011.2 hPa | 0.51 mm | - | 19 W/m² | - |
| 1777903914 | 18.89° C | 81% | 1011 hPa | 0.51 mm | - | 45 W/m² | - |
| 1777903584 | 18.89° C | 81% | 1010.9 hPa | 0.51 mm | - | 62 W/m² | - |
| 1777903254 | 19.44° C | 77% | 1010.8 hPa | 0.25 mm | - | 66 W/m² | - |
| 1777902924 | 19.44° C | 74% | 1010.7 hPa | 0 mm | - | 51 W/m² | - |
| 1777902594 | 20° C | 71% | 1010.7 hPa | 0 mm | - | 38 W/m² | - |
| 1777902265 | 20.56° C | 69% | 1010.7 hPa | 0 mm | - | 35 W/m² | - |
| 1777901935 | 20.56° C | 69% | 1010.7 hPa | 0 mm | - | 40 W/m² | - |
| 1777901604 | 20.56° C | 67% | 1010.6 hPa | 0 mm | - | 50 W/m² | - |
| 1777901275 | 20.56° C | 66% | 1010.6 hPa | 0 mm | - | 58 W/m² | - |
| 1777900944 | 20.56° C | 66% | 1010.6 hPa | 0 mm | - | 65 W/m² | - |
| 1777900614 | 20.56° C | 66% | 1010.6 hPa | 0 mm | - | 68 W/m² | - |
| 1777900285 | 20.56° C | 67% | 1010.6 hPa | 0 mm | - | 83 W/m² | - |
| 1777899954 | 21.11° C | 67% | 1010.6 hPa | 0 mm | - | 97 W/m² | - |
| 1777899625 | 21.11° C | 66% | 1010.7 hPa | 0 mm | - | 94 W/m² | - |
| 1777899295 | 21.11° C | 64% | 1010.7 hPa | 0 mm | - | 95 W/m² | - |
| 1777898965 | 21.67° C | 65% | 1010.7 hPa | 0 mm | - | 101 W/m² | - |
| 1777898635 | 21.67° C | 65% | 1010.8 hPa | 0 mm | - | 111 W/m² | - |
| 1777898305 | 21.67° C | 64% | 1010.8 hPa | 0 mm | - | 113 W/m² | - |
| 1777897974 | 21.67° C | 64% | 1010.8 hPa | 0 mm | - | 123 W/m² | - |
| 1777897644 | 21.67° C | 64% | 1010.8 hPa | 0 mm | - | 154 W/m² | - |
| 1777897314 | 21.11° C | 65% | 1010.7 hPa | 0 mm | - | 168 W/m² | - |
* Rain latest hour (hover to see other rain measurements)
** Current wind speed in m/s (hover to see current wind gust speed)